Main page
Satellite images 15-day forecastsClimateMarine weather Cyclones Lightning AirportsFAQ Newsletter About
Weather : Europe Africa North America South America Asia Australia-Oceania Others
Languages Contact

Alpine, Texas, United States

Alpine-Casparis Municipal Airport

latitude: 30-23-03N, longitude: 103-41-00W, elevation: 1376 m


METAR: KE38 251755Z AUTO 00000KT 10SM CLR 30/10 A3023 RMK AO2 T03040102 10304 20184
short-TAF: missing
long-TAF: missing

Time: 13:14 (18:14 UTC)

Current weather observation

The report was made 19 minutes ago, at 17:55 UTC  
Wind calm
Temperature 30°C
Humidity 29%
Pressure 1024 hPa
Visibility 16.1 km
Clear sky

Change units
The information on this site is subject to a disclaimer
Weather : Europe Africa North America South America Asia Australia-Oceania Others
Satellite images 15-day forecastsClimateMarine weather Cyclones Lightning AirportsFAQ Languages Contact Newsletter About